Time;durP1;ratioP1;P1;durP2;ratioP2;P2;SDS_P1;SDS_P2;PMS_P1;PMS_P2;Temp;Humidity;BMP_temperature;BMP_pressure;BME280_temperature;BME280_humidity;BME280_pressure;Samples;Min_cycle;Max_cycle;Signal;HPM_P1;HPM_P2
2023/02/03 00:02:05;;;;;;;11.38;6.30;;;;;;;-0.88;98.08;100582.58;1726692;82;25474;-42
2023/02/03 00:04:31;;;;;;;12.13;5.87;;;;;;;-0.89;98.08;100591.56;1686838;85;27292;-43
2023/02/03 00:07:01;;;;;;;10.53;6.00;;;;;;;-0.93;98.27;100603.16;1726542;83;25599;-43
2023/02/03 00:09:27;;;;;;;10.78;6.30;;;;;;;-0.94;98.39;100605.51;1686823;85;25566;-43
2023/02/03 00:11:55;;;;;;;12.75;6.40;;;;;;;-0.96;98.42;100604.94;1726567;83;25624;-43
2023/02/03 00:14:21;;;;;;;9.85;6.60;;;;;;;-0.97;98.36;100610.77;1686856;85;25592;-43
2023/02/03 00:16:49;;;;;;;9.85;6.15;;;;;;;-0.99;98.26;100608.03;1726585;83;28075;-43
2023/02/03 00:19:15;;;;;;;12.18;6.78;;;;;;;-1.02;98.33;100605.32;1688521;84;25868;-42
2023/02/03 00:21:41;;;;;;;14.15;7.35;;;;;;;-1.03;98.39;100602.89;1726067;83;25912;-43
2023/02/03 00:24:08;;;;;;;12.37;7.03;;;;;;;-1.06;98.36;100602.80;1689169;84;25789;-43
2023/02/03 00:26:34;;;;;;;10.08;6.85;;;;;;;-1.07;98.46;100609.66;1726614;83;25633;-42
2023/02/03 00:29:00;;;;;;;14.70;7.12;;;;;;;-1.08;98.44;100604.08;1726604;82;27409;-42
2023/02/03 00:31:26;;;;;;;15.08;7.47;;;;;;;-1.10;98.38;100606.95;1686737;85;25617;-43
2023/02/03 00:33:57;;;;;;;10.95;6.70;;;;;;;-1.14;98.41;100594.64;1726610;83;25458;-43
2023/02/03 00:36:26;;;;;;;12.15;7.03;;;;;;;-1.16;98.47;100596.72;1686768;85;25638;-43
2023/02/03 00:38:54;;;;;;;;;;;;;;;-1.16;98.48;100600.70;1729187;83;25420;-41
2023/02/03 00:41:25;;;;;;;9.13;6.22;;;;;;;-1.18;98.51;100601.42;1726627;82;27481;-40
2023/02/03 00:43:53;;;;;;;13.25;6.95;;;;;;;-1.20;98.56;100599.51;1686828;84;25625;-41
2023/02/03 00:46:19;;;;;;;10.68;6.95;;;;;;;-1.23;98.56;100603.93;1726668;83;25450;-42
2023/02/03 00:48:45;;;;;;;11.75;6.53;;;;;;;-1.25;98.59;100602.55;1686729;85;25602;-42
2023/02/03 00:51:12;;;;;;;12.18;6.72;;;;;;;-1.27;98.61;100597.45;1726660;83;25560;-42
2023/02/03 00:53:40;;;;;;;11.35;6.47;;;;;;;-1.27;98.55;100600.64;1686835;83;27532;-42
2023/02/03 00:56:11;;;;;;;9.33;5.90;;;;;;;-1.30;98.41;100597.09;1726507;83;25822;-43
2023/02/03 00:58:35;;;;;;;12.35;6.87;;;;;;;-1.33;98.26;100597.84;1686346;84;25723;-42
2023/02/03 01:01:06;;;;;;;12.53;6.80;;;;;;;-1.35;98.26;100605.19;1726523;82;25661;-42
2023/02/03 01:03:34;;;;;;;;;;;;;;;-1.37;98.30;100608.59;1699053;83;25534;-43
2023/02/03 01:06:19;;;;;;;9.50;5.35;;;;;;;-1.39;98.34;100609.86;1696526;84;27453;-43
2023/02/03 01:08:49;;;;;;;9.35;5.53;;;;;;;-1.40;98.37;100610.88;1695621;84;25427;-41
2023/02/03 01:11:23;;;;;;;7.70;5.47;;;;;;;-1.45;98.23;100604.90;1726582;83;25610;-42
2023/02/03 01:13:53;;;;;;;10.70;5.87;;;;;;;-1.47;98.26;100613.61;1726080;83;26575;-41
2023/02/03 01:16:23;;;;;;;11.15;5.85;;;;;;;-1.48;98.20;100609.84;1696524;84;25604;-42
2023/02/03 01:18:51;;;;;;;9.00;5.87;;;;;;;-1.52;98.18;100613.45;1726568;83;27427;-42
2023/02/03 01:21:23;;;;;;;8.28;5.67;;;;;;;-1.54;98.18;100620.30;1696435;84;25635;-42
2023/02/03 01:23:54;;;;;;;10.63;6.17;;;;;;;-1.55;98.02;100621.84;1726591;83;25463;-42
2023/02/03 01:26:24;;;;;;;11.63;6.83;;;;;;;-1.59;98.24;100621.48;1696530;84;25597;-41
2023/02/03 01:28:55;;;;;;;10.85;6.08;;;;;;;-1.61;98.30;100624.88;1726604;83;25625;-42
2023/02/03 01:31:27;;;;;;;10.18;5.90;;;;;;;-1.62;98.44;100617.94;1696547;84;27352;-41
2023/02/03 01:33:56;;;;;;;8.28;5.08;;;;;;;-1.63;98.28;100621.64;1726543;83;25592;-43
2023/02/03 01:36:28;;;;;;;10.43;6.30;;;;;;;-1.65;98.30;100621.55;1696663;84;25605;-42
2023/02/03 01:38:56;;;;;;;9.10;4.90;;;;;;;-1.67;98.34;100617.78;1726569;83;26325;-41
2023/02/03 01:41:28;;;;;;;8.88;4.85;;;;;;;-1.68;98.33;100626.80;1696499;84;25614;-41
2023/02/03 01:44:00;;;;;;;7.12;4.60;;;;;;;-1.71;98.23;100628.02;1696342;82;28041;-42
2023/02/03 01:46:44;;;;;;;11.38;5.50;;;;;;;-1.73;98.30;100625.31;1726618;83;25547;-41
2023/02/03 01:49:25;;;;;;;9.85;4.70;;;;;;;-1.74;98.26;100623.68;1696344;84;25610;-41
2023/02/03 01:51:54;;;;;;;10.50;4.97;;;;;;;-1.75;98.31;100624.73;1696597;83;26103;-41
2023/02/03 01:54:28;;;;;;;7.70;4.42;;;;;;;-1.77;98.25;100618.31;1726693;83;25382;-41
2023/02/03 01:57:00;;;;;;;6.90;5.03;;;;;;;-1.79;98.16;100621.67;1696608;84;27486;-42
2023/02/03 01:59:30;;;;;;;7.95;4.85;;;;;;;-1.80;98.11;100612.11;1726765;82;25575;-42
2023/02/03 02:02:00;;;;;;;9.35;5.45;;;;;;;-1.79;98.07;100614.24;1719864;83;25588;-41
2023/02/03 02:04:32;;;;;;;9.00;5.67;;;;;;;-1.81;97.97;100611.00;1719786;83;25695;-41
2023/02/03 02:07:01;;;;;;;7.10;5.03;;;;;;;-1.81;97.96;100614.98;1690568;83;25460;-42
2023/02/03 02:09:29;;;;;;;9.38;4.60;;;;;;;-1.81;98.06;100621.09;1719948;83;29520;-41
2023/02/03 02:11:55;;;;;;;6.55;4.10;;;;;;;-1.77;98.18;100621.45;1719797;83;25559;-42
2023/02/03 02:14:21;;;;;;;5.83;4.12;;;;;;;-1.74;98.31;100614.39;1719838;82;25584;-42
2023/02/03 02:16:56;;;;;;;6.33;4.12;;;;;;;-1.70;98.41;100612.94;1719715;83;25748;-43
2023/02/03 02:20:09;;;;;;;8.80;5.25;;;;;;;-1.65;98.51;100610.94;1719460;83;25609;-42
2023/02/03 02:23:16;;;;;;;6.25;4.33;;;;;;;-1.60;98.57;100607.94;1719807;83;27401;-42
2023/02/03 02:25:59;;;;;;;6.60;4.37;;;;;;;-1.54;98.58;100603.59;1674675;85;27248;-42
2023/02/03 02:28:46;;;;;;;6.28;4.75;;;;;;;-1.47;98.59;100598.20;1677435;85;25762;-42
2023/02/03 02:32:03;;;;;;;7.58;5.15;;;;;;;-1.44;98.56;100596.45;1677363;85;25775;-43
2023/02/03 02:35:02;;;;;;;9.65;5.28;;;;;;;-1.39;98.55;100592.08;1677468;85;25625;-41
2023/02/03 02:37:37;;;;;;;11.43;5.45;;;;;;;-1.37;98.42;100582.58;1677542;85;27320;-42
2023/02/03 02:40:37;;;;;;;14.28;9.80;;;;;;;-1.33;98.37;100587.72;1654335;85;25576;-42
2023/02/03 02:43:09;;;;;;;12.68;8.13;;;;;;;-1.31;98.14;100584.35;1677475;85;25482;-42
2023/02/03 02:46:11;;;;;;;14.03;6.53;;;;;;;-1.32;97.88;100582.19;1677205;85;25760;-42
2023/02/03 02:48:57;;;;;;;16.17;8.60;;;;;;;-1.33;97.55;100572.63;1677440;85;25580;-43
2023/02/03 02:51:27;;;;;;;12.18;6.75;;;;;;;-1.36;97.13;100573.59;1677473;85;27356;-40
2023/02/03 02:53:59;;;;;;;15.10;8.43;;;;;;;-1.38;97.01;100576.96;1677428;85;25675;-42
2023/02/03 02:56:29;;;;;;;12.73;6.47;;;;;;;-1.40;96.62;100577.18;1677485;85;25667;-43
2023/02/03 02:58:59;;;;;;;19.52;11.97;;;;;;;-1.44;96.36;100577.34;1677393;85;25730;-42
2023/02/03 03:01:28;;;;;;;19.50;10.25;;;;;;;-1.46;96.24;100581.23;1667045;85;25677;-40
2023/02/03 03:03:59;;;;;;;18.67;11.63;;;;;;;-1.48;96.05;100581.48;1719554;83;29687;-41
2023/02/03 03:06:50;;;;;;;12.18;8.53;;;;;;;-1.51;95.90;100580.07;1686862;85;25476;-41
2023/02/03 03:09:25;;;;;;;12.05;8.40;;;;;;;-1.54;95.87;100577.05;1672371;85;25645;-41
2023/02/03 03:11:57;;;;;;;8.55;4.45;;;;;;;-1.58;95.53;100586.50;1686735;84;25750;-41
2023/02/03 03:14:27;;;;;;;10.05;5.47;;;;;;;-1.63;95.49;100580.52;1726352;83;25406;-40
2023/02/03 03:17:05;;;;;;;12.40;8.48;;;;;;;-1.66;95.30;100588.11;1686906;85;27410;-42
2023/02/03 03:19:37;;;;;;;13.43;5.92;;;;;;;-1.69;95.22;100589.35;1686496;84;25845;-42
2023/02/03 03:22:09;;;;;;;15.05;9.08;;;;;;;-1.73;95.20;100592.96;1726676;83;25573;-44
2023/02/03 03:24:49;;;;;;;8.93;5.75;;;;;;;-1.75;95.18;100590.25;1686818;85;27815;-42
2023/02/03 03:27:27;;;;;;;13.48;8.60;;;;;;;-1.77;95.19;100593.12;1726757;83;25552;-42
2023/02/03 03:30:12;;;;;;;14.78;8.15;;;;;;;-1.79;95.17;100591.17;1726695;83;27348;-42
2023/02/03 03:32:41;;;;;;;22.73;8.40;;;;;;;-1.81;95.18;100587.94;1686844;85;25480;-42
2023/02/03 03:35:10;;;;;;;34.78;13.15;;;;;;;-1.82;95.04;100585.50;1694033;83;25641;-44
2023/02/03 03:37:44;;;;;;;34.63;12.03;;;;;;;-1.86;94.99;100582.48;1722721;82;25591;-44
2023/02/03 03:40:24;;;;;;;30.25;11.45;;;;;;;-1.89;94.97;100586.40;1724517;83;25589;-42
2023/02/03 03:43:05;;;;;;;36.23;13.65;;;;;;;-1.91;95.00;100583.66;1687114;84;29451;-41
2023/02/03 03:45:52;;;;;;;40.30;13.90;;;;;;;-1.94;95.05;100581.44;1674302;85;25848;-42
2023/02/03 03:48:37;;;;;;;35.23;13.58;;;;;;;-1.95;95.00;100582.48;1665760;86;25764;-41
2023/02/03 03:51:11;;;;;;;32.05;15.48;;;;;;;-1.97;95.05;100580.57;1674351;85;25699;-41
2023/02/03 03:53:41;;;;;;;20.70;8.98;;;;;;;-1.99;94.97;100579.95;1665647;86;25581;-42
2023/02/03 03:56:14;;;;;;;33.35;11.35;;;;;;;-2.01;95.00;100574.06;1674409;85;27332;-41
2023/02/03 03:58:47;;;;;;;20.50;8.10;;;;;;;-2.03;95.08;100571.63;1665550;86;27312;-41
2023/02/03 04:01:17;;;;;;;25.75;9.83;;;;;;;-2.04;95.21;100575.33;1690128;84;25707;-45
2023/02/03 04:03:55;;;;;;;20.55;10.10;;;;;;;-2.05;95.27;100575.55;1699075;84;25686;-42
2023/02/03 04:06:24;;;;;;;23.52;12.40;;;;;;;-2.05;95.22;100583.50;1699213;84;25474;-41
2023/02/03 04:08:52;;;;;;;19.00;10.10;;;;;;;-2.06;95.21;100587.97;1699088;84;27785;-40
2023/02/03 04:14:05;;;;;;;18.52;7.97;;;;;;;-2.11;95.14;100578.53;1699137;84;25519;-42
2023/02/03 04:16:31;;;;;;;21.52;9.73;;;;;;;-2.13;95.23;100585.41;1699019;84;25641;-41
2023/02/03 04:18:57;;;;;;;19.95;9.83;;;;;;;-2.14;95.42;100582.45;1699091;84;25442;-42
2023/02/03 04:21:26;;;;;;;20.50;9.43;;;;;;;-2.13;95.34;100584.57;1698780;84;27341;-40
2023/02/03 04:23:52;;;;;;;14.90;7.42;;;;;;;-2.16;95.16;100586.33;1697059;83;25871;-41
2023/02/03 04:26:20;;;;;;;18.42;8.68;;;;;;;-2.17;95.34;100582.07;1697150;84;25410;-42
2023/02/03 04:28:46;;;;;;;16.65;8.60;;;;;;;-2.17;95.43;100586.05;1696959;84;25661;-43
2023/02/03 04:31:13;;;;;;;29.40;14.93;;;;;;;-2.20;95.33;100583.83;1697057;83;25442;-42
2023/02/03 04:33:39;;;;;;;28.67;14.43;;;;;;;-2.21;95.41;100583.52;1697028;84;27951;-42
2023/02/03 04:36:08;;;;;;;25.43;11.85;;;;;;;-2.22;95.49;100589.86;1697037;84;25467;-41
2023/02/03 04:38:37;;;;;;;25.25;9.83;;;;;;;-2.24;95.17;100582.64;1697071;84;25544;-42
2023/02/03 04:41:06;;;;;;;24.30;10.18;;;;;;;-2.26;95.12;100586.84;1696962;84;25853;-42
2023/02/03 04:43:35;;;;;;;16.85;8.20;;;;;;;-2.29;95.13;100585.94;1697239;84;25455;-41
2023/02/03 04:46:05;;;;;;;29.98;12.65;;;;;;;-2.31;95.19;100583.50;1697174;84;27393;-41
2023/02/03 04:48:34;;;;;;;34.48;15.88;;;;;;;-2.33;95.25;100583.44;1696996;84;25280;-41
2023/02/03 04:51:06;;;;;;;40.35;18.90;;;;;;;-2.35;95.35;100581.00;1697075;84;25418;-41
2023/02/03 04:53:35;;;;;;;16.45;9.40;;;;;;;-2.36;95.42;100585.19;1697112;84;26352;-41
2023/02/03 04:56:05;;;;;;;22.42;10.03;;;;;;;-2.38;95.51;100581.42;1697079;84;25403;-41
2023/02/03 04:58:36;;;;;;;13.48;6.55;;;;;;;-2.39;95.51;100578.98;1697132;84;27475;-41
2023/02/03 05:01:09;;;;;;;18.07;9.33;;;;;;;-2.41;95.52;100576.55;1675218;84;25630;-41
2023/02/03 05:03:37;;;;;;;15.93;9.23;;;;;;;-2.42;95.39;100575.44;1697044;84;25534;-42
2023/02/03 05:06:06;;;;;;;13.93;7.85;;;;;;;-2.45;95.33;100574.05;1696985;83;25719;-41
2023/02/03 05:08:34;;;;;;;15.65;6.62;;;;;;;-2.49;95.23;100572.31;1697197;84;25430;-41
2023/02/03 05:11:01;;;;;;;9.88;6.05;;;;;;;-2.50;95.21;100563.28;1697027;84;27384;-42
2023/02/03 05:13:27;;;;;;;8.00;4.22;;;;;;;-2.52;95.22;100558.70;1696884;84;25521;-42
2023/02/03 05:15:53;;;;;;;12.23;5.08;;;;;;;-2.54;95.41;100558.11;1696980;84;25541;-43
2023/02/03 05:18:20;;;;;;;9.75;5.72;;;;;;;-2.56;95.31;100554.34;1696947;83;25746;-41
2023/02/03 05:20:46;;;;;;;11.65;5.87;;;;;;;-2.57;95.46;100553.23;1696952;84;25527;-42
2023/02/03 05:23:12;;;;;;;11.57;5.83;;;;;;;-2.59;95.47;100550.80;1696992;83;27232;-41
2023/02/03 05:25:38;;;;;;;9.95;4.53;;;;;;;-2.60;95.22;100547.06;1696924;83;25693;-42
2023/02/03 05:28:05;;;;;;;5.67;4.20;;;;;;;-2.64;95.15;100555.44;1696924;84;25475;-42
2023/02/03 05:30:31;;;;;;;6.35;3.85;;;;;;;-2.64;95.35;100559.41;1696960;84;25709;-40
2023/02/03 05:32:57;;;;;;;12.35;4.58;;;;;;;-2.65;95.38;100553.80;1697039;83;25564;-41
2023/02/03 05:35:23;;;;;;;7.77;3.57;;;;;;;-2.66;95.43;100549.52;1696991;84;27408;-42
2023/02/03 05:37:49;;;;;;;8.68;4.87;;;;;;;-2.67;95.53;100556.38;1696865;84;25537;-42
2023/02/03 05:43:03;;;;;;;11.15;5.85;;;;;;;-2.71;95.53;100549.35;1678284;84;25803;-42
2023/02/03 05:45:29;;;;;;;8.78;5.20;;;;;;;-2.72;95.76;100560.98;1696954;84;25561;-42
2023/02/03 05:47:55;;;;;;;10.53;5.55;;;;;;;-2.73;95.86;100551.93;1696953;83;27363;-42
2023/02/03 05:50:22;;;;;;;8.43;4.53;;;;;;;-2.75;95.95;100545.52;1696877;83;25714;-42
2023/02/03 05:52:50;;;;;;;8.43;4.97;;;;;;;-2.73;96.03;100551.93;1696949;84;25519;-42
2023/02/03 05:55:16;;;;;;;8.30;4.65;;;;;;;-2.76;95.89;100543.89;1696924;84;25627;-42
2023/02/03 05:57:42;;;;;;;9.10;4.37;;;;;;;-2.79;95.63;100544.34;1696971;84;25458;-42
2023/02/03 06:00:13;;;;;;;14.03;8.00;;;;;;;-2.80;95.52;100550.66;1696958;84;27324;-42
2023/02/03 06:02:44;;;;;;;9.35;4.90;;;;;;;-2.82;95.65;100549.54;1728968;83;25610;-42
2023/02/03 06:05:10;;;;;;;10.55;6.15;;;;;;;-2.83;95.70;100548.42;1729970;83;25657;-43
2023/02/03 06:07:38;;;;;;;10.18;5.35;;;;;;;-2.84;96.03;100545.50;1719811;83;25550;-43
2023/02/03 06:10:08;;;;;;;14.20;7.72;;;;;;;-2.84;96.12;100543.66;1719886;83;25629;-43
2023/02/03 06:12:38;;;;;;;10.78;5.50;;;;;;;-2.84;96.25;100533.58;1719853;83;27362;-42
2023/02/03 06:15:09;;;;;;;14.00;8.98;;;;;;;-2.83;96.30;100538.66;1719740;83;25832;-42
2023/02/03 06:17:37;;;;;;;11.78;6.37;;;;;;;-2.83;96.36;100536.51;1719900;83;25604;-41
2023/02/03 06:20:08;;;;;;;16.40;10.68;;;;;;;-2.84;96.47;100528.29;1719786;82;25691;-41
2023/02/03 06:22:35;;;;;;;12.50;6.90;;;;;;;-2.83;96.53;100529.89;1719861;83;25579;-42
2023/02/03 06:25:01;;;;;;;18.37;10.10;;;;;;;-2.84;96.45;100528.29;1719734;83;29516;-42
2023/02/03 06:27:27;;;;;;;10.70;6.45;;;;;;;-2.83;96.44;100523.27;1719710;83;25466;-42
2023/02/03 06:29:53;;;;;;;14.85;7.72;;;;;;;-2.82;96.56;100523.06;1719820;83;25410;-43
2023/02/03 06:32:20;;;;;;;17.67;7.33;;;;;;;-2.83;96.71;100514.84;1688754;83;25952;-42
2023/02/03 06:34:46;;;;;;;15.23;7.67;;;;;;;-2.83;96.80;100522.78;1719809;82;25488;-42
2023/02/03 06:37:16;;;;;;;17.50;9.90;;;;;;;-2.82;96.87;100519.09;1719752;83;27394;-44
2023/02/03 06:39:42;;;;;;;;;;;;;;;-2.80;96.98;100516.75;1722216;83;27185;-43
2023/02/03 06:42:08;;;;;;;15.53;9.50;;;;;;;-2.80;97.01;100511.45;1719751;83;25632;-42
2023/02/03 06:44:36;;;;;;;15.78;7.15;;;;;;;-2.80;97.17;100502.19;1719819;83;25687;-43
2023/02/03 06:47:02;;;;;;;14.50;9.38;;;;;;;-2.78;97.35;100498.81;1719783;82;25465;-45
2023/02/03 06:49:30;;;;;;;19.90;8.93;;;;;;;-2.77;97.43;100491.98;1700819;83;27731;-40
2023/02/03 06:51:57;;;;;;;22.15;11.85;;;;;;;-2.76;97.52;100496.23;1719692;83;25765;-42
2023/02/03 06:54:28;;;;;;;16.62;9.13;;;;;;;-2.72;97.67;100484.20;1718891;83;25439;-43
2023/02/03 06:56:54;;;;;;;16.85;9.53;;;;;;;-2.68;97.73;100481.92;1719540;82;25687;-43
2023/02/03 06:59:22;;;;;;;17.25;9.18;;;;;;;-2.66;97.68;100477.22;1719799;83;25658;-43
2023/02/03 07:01:50;;;;;;;8.18;5.17;;;;;;;-2.63;97.72;100475.47;1719378;82;27390;-43
2023/02/03 07:04:19;;;;;;;14.47;7.28;;;;;;;-2.60;97.82;100479.01;1719709;83;25426;-45
2023/02/03 07:06:45;;;;;;;17.82;8.78;;;;;;;-2.57;97.88;100477.75;1719641;83;25708;-44
2023/02/03 07:09:17;;;;;;;17.30;8.13;;;;;;;-2.54;97.91;100475.47;1719742;83;25623;-44
2023/02/03 07:11:43;;;;;;;15.98;8.13;;;;;;;-2.49;98.02;100473.50;1719956;83;25617;-45
2023/02/03 07:14:09;;;;;;;14.98;8.80;;;;;;;-2.45;98.10;100468.08;1719836;83;28068;-46
2023/02/03 07:16:36;;;;;;;18.17;9.65;;;;;;;-2.39;98.17;100457.12;1719733;83;25378;-46
2023/02/03 07:19:05;;;;;;;16.67;13.03;;;;;;;-2.35;98.13;100455.14;1719847;83;25616;-46
2023/02/03 07:21:34;;;;;;;20.55;8.08;;;;;;;-2.30;98.09;100459.27;1719771;83;25602;-44
2023/02/03 07:24:01;;;;;;;24.30;11.40;;;;;;;-2.26;98.02;100451.69;1719900;83;25552;-43
2023/02/03 07:26:30;;;;;;;16.75;7.42;;;;;;;-2.23;98.08;100440.66;1719864;83;27841;-42
2023/02/03 07:28:58;;;;;;;23.10;12.35;;;;;;;-2.15;98.23;100438.20;1719839;83;25553;-43
2023/02/03 07:31:24;;;;;;;20.97;9.08;;;;;;;-2.05;98.59;100431.07;1718920;83;25605;-43
2023/02/03 07:33:52;;;;;;;22.10;11.25;;;;;;;-1.96;98.78;100429.73;1719713;83;25616;-43
2023/02/03 07:36:18;;;;;;;18.15;11.12;;;;;;;-1.86;98.98;100432.66;1719842;83;25579;-45
2023/02/03 07:38:44;;;;;;;34.80;31.68;;;;;;;-1.72;99.39;100428.00;1719806;83;27328;-47
2023/02/03 07:41:10;;;;;;;53.38;48.98;;;;;;;-1.48;100.00;100428.92;1719712;83;25446;-43
2023/02/03 07:43:37;;;;;;;62.48;56.68;;;;;;;-1.28;99.82;100421.98;1719776;83;25387;-44
2023/02/03 07:46:06;;;;;;;46.95;43.33;;;;;;;-1.16;98.77;100415.38;1719755;83;25646;-47
2023/02/03 07:48:35;;;;;;;55.63;51.00;;;;;;;-1.02;98.49;100410.66;1720101;83;25619;-44
2023/02/03 07:51:05;;;;;;;79.53;73.42;;;;;;;-0.72;99.72;100413.75;1691546;83;27397;-44
2023/02/03 07:53:33;;;;;;;73.33;67.65;;;;;;;-0.41;100.00;100398.78;1719996;83;25756;-44
2023/02/03 07:56:06;;;;;;;88.72;81.95;;;;;;;-0.19;99.61;100400.80;1719923;83;25617;-44
2023/02/03 07:58:33;;;;;;;84.20;77.92;;;;;;;0.06;99.86;100391.73;1719970;83;25672;-44
2023/02/03 08:01:00;;;;;;;82.22;75.87;;;;;;;0.22;98.39;100390.96;1719868;83;25567;-44
2023/02/03 08:03:27;;;;;;;84.90;78.62;;;;;;;0.40;99.12;100378.00;1731551;82;27410;-46
2023/02/03 08:05:53;;;;;;;85.80;79.12;;;;;;;0.66;98.83;100378.44;1701267;84;25965;-44
2023/02/03 08:08:21;;;;;;;77.42;72.00;;;;;;;0.84;97.86;100372.88;1701310;84;25441;-43
2023/02/03 08:10:51;;;;;;;82.70;76.42;;;;;;;1.01;95.81;100376.08;1701333;84;25618;-43
2023/02/03 08:13:22;;;;;;;81.37;75.22;;;;;;;1.23;96.40;100379.59;1681363;84;25630;-46
2023/02/03 08:15:52;;;;;;;85.55;78.97;;;;;;;1.47;95.33;100370.86;1701376;84;27317;-45
2023/02/03 08:18:22;;;;;;;84.40;78.40;;;;;;;1.55;94.26;100365.65;1701270;84;25616;-43
2023/02/03 08:20:52;;;;;;;84.42;78.10;;;;;;;1.61;92.21;100359.84;1701330;84;25489;-42
2023/02/03 08:23:19;;;;;;;85.17;78.83;;;;;;;1.68;91.80;100357.26;1701320;83;26200;-42
2023/02/03 08:25:51;;;;;;;85.47;78.90;;;;;;;1.79;91.44;100357.41;1701314;84;25629;-44
2023/02/03 08:28:19;;;;;;;85.10;79.10;;;;;;;1.89;91.39;100362.86;1700501;84;27555;-45
2023/02/03 08:30:48;;;;;;;84.28;78.00;;;;;;;1.84;89.40;100349.47;1701179;84;25384;-42
2023/02/03 08:33:17;;;;;;;82.70;76.80;;;;;;;1.77;89.57;100348.83;1701569;84;25646;-43
2023/02/03 08:35:51;;;;;;;83.10;77.12;;;;;;;1.70;88.28;100342.88;1701437;84;27769;-43
2023/02/03 08:38:20;;;;;;;82.10;76.10;;;;;;;1.65;88.86;100338.28;1701444;84;25504;-41
2023/02/03 08:40:46;;;;;;;;;;;;;;;1.64;89.45;100331.36;1693740;84;27379;-42
2023/02/03 08:43:13;;;;;;;82.43;76.63;;;;;;;1.66;88.85;100331.91;1681213;84;28369;-42
2023/02/03 08:45:43;;;;;;;61.55;57.10;;;;;;;1.63;88.32;100324.41;1701295;84;25218;-42
2023/02/03 08:48:12;;;;;;;53.02;49.23;;;;;;;1.64;88.93;100324.16;1701378;84;25750;-43
2023/02/03 08:50:50;;;;;;;45.20;41.92;;;;;;;1.64;87.39;100318.02;1681579;84;25580;-43
2023/02/03 08:53:12;;;;;;;76.95;71.22;;;;;;;1.55;87.09;100319.50;1701296;84;27491;-42
2023/02/03 08:55:42;;;;;;;85.83;79.42;;;;;;;1.57;87.25;100314.21;1701218;84;25455;-43
2023/02/03 08:58:08;;;;;;;85.97;79.87;;;;;;;1.53;85.70;100306.41;1701353;84;25552;-41
2023/02/03 09:00:34;;;;;;;82.05;76.12;;;;;;;1.47;85.55;100306.89;1701234;84;25611;-42
2023/02/03 09:03:01;;;;;;;86.95;80.55;;;;;;;1.42;85.54;100298.03;1721062;83;25486;-41
2023/02/03 09:05:32;;;;;;;83.22;77.17;;;;;;;1.34;85.38;100289.92;1691000;83;27760;-42
2023/02/03 09:08:00;;;;;;;86.53;80.20;;;;;;;1.33;85.58;100280.34;1719846;83;25646;-42
2023/02/03 09:10:27;;;;;;;82.25;76.47;;;;;;;1.30;85.09;100283.48;1719895;83;25386;-43
2023/02/03 09:12:53;;;;;;;86.50;80.30;;;;;;;1.35;85.66;100277.42;1719835;83;25712;-42
2023/02/03 09:15:19;;;;;;;81.30;75.65;;;;;;;1.37;85.93;100273.44;1719931;83;25603;-42
2023/02/03 09:17:45;;;;;;;82.42;76.72;;;;;;;1.63;87.05;100269.73;1719867;83;28221;-42
2023/02/03 09:20:15;;;;;;;84.30;78.00;;;;;;;1.86;86.97;100257.45;1719780;82;25606;-40
2023/02/03 09:22:41;;;;;;;82.75;76.85;;;;;;;2.00;86.20;100258.39;1691511;83;25567;-42
2023/02/03 09:25:11;;;;;;;87.47;81.00;;;;;;;2.15;85.35;100247.86;1719827;83;25685;-42
2023/02/03 09:27:37;;;;;;;86.80;80.47;;;;;;;2.30;85.11;100255.19;1720020;83;25420;-43
2023/02/03 09:30:08;;;;;;;84.00;78.07;;;;;;;2.47;84.60;100247.55;1719740;83;27322;-42
2023/02/03 09:32:34;;;;;;;81.42;75.75;;;;;;;2.59;85.25;100243.66;1719838;83;25655;-43
2023/02/03 09:35:00;;;;;;;84.15;78.12;;;;;;;2.59;83.83;100246.33;1719849;83;25447;-42
2023/02/03 09:37:30;;;;;;;40.73;37.60;;;;;;;2.60;83.29;100233.23;1719831;83;25615;-42
2023/02/03 09:39:57;;;;;;;9.45;4.35;;;;;;;2.80;83.68;100229.09;1719849;83;25467;-42
2023/02/03 09:43:02;;;;;;;7.10;3.87;;;;;;;2.86;82.65;100219.23;1719764;83;27340;-43
2023/02/03 09:45:32;;;;;;;7.80;3.47;;;;;;;2.90;82.42;100214.99;1675921;85;25708;-43
2023/02/03 09:48:20;;;;;;;5.60;3.05;;;;;;;2.86;80.69;100212.04;1675912;85;25556;-42
2023/02/03 09:50:51;;;;;;;6.47;3.62;;;;;;;2.80;78.91;100205.84;1675958;85;25632;-43
2023/02/03 09:53:28;;;;;;;6.83;4.15;;;;;;;2.74;80.34;100197.55;1676052;85;25513;-46
2023/02/03 09:55:58;;;;;;;6.12;3.40;;;;;;;2.75;79.88;100194.34;1675963;85;29547;-43
2023/02/03 09:58:30;;;;;;;7.67;3.22;;;;;;;2.68;79.05;100187.89;1675916;85;25593;-45
2023/02/03 10:01:01;;;;;;;5.78;3.33;;;;;;;2.70;78.55;100183.63;1675862;85;25541;-41
2023/02/03 10:03:51;;;;;;;6.65;2.90;;;;;;;2.71;79.31;100177.23;1682352;83;26552;-41
2023/02/03 10:06:38;;;;;;;7.42;2.70;;;;;;;2.73;76.94;100168.42;1685142;85;25514;-43
2023/02/03 10:09:27;;;;;;;6.70;3.40;;;;;;;2.64;75.86;100175.30;1683862;85;27976;-41
2023/02/03 10:12:14;;;;;;;5.30;2.95;;;;;;;2.60;76.39;100149.65;1684225;85;25705;-41
2023/02/03 10:15:00;;;;;;;5.53;2.87;;;;;;;2.55;75.30;100149.63;1684238;85;25561;-40
2023/02/03 10:17:44;;;;;;;5.35;2.92;;;;;;;2.54;75.17;100144.83;1683087;85;25677;-42
2023/02/03 10:20:34;;;;;;;6.65;2.70;;;;;;;2.83;76.12;100135.08;1716563;82;25652;-42
2023/02/03 10:23:12;;;;;;;5.47;2.37;;;;;;;2.86;73.95;100127.88;1697013;84;27585;-42
2023/02/03 10:25:54;;;;;;;4.35;2.12;;;;;;;2.89;72.54;100124.67;1731952;82;25725;-43
2023/02/03 10:28:29;;;;;;;3.33;2.05;;;;;;;2.70;71.82;100107.51;1696994;84;25577;-42
2023/02/03 10:31:03;;;;;;;2.00;1.80;;;;;;;2.66;72.88;100105.89;1730106;82;25619;-43
2023/02/03 10:33:33;;;;;;;2.95;1.67;;;;;;;2.79;72.02;100089.39;1731905;82;25660;-41
2023/02/03 10:36:23;;;;;;;3.65;1.98;;;;;;;2.85;69.94;100101.43;1697007;84;27456;-44
2023/02/03 10:39:02;;;;;;;;;;;;;;;2.77;69.87;100092.03;1702291;82;25582;-41
2023/02/03 10:41:32;;;;;;;5.80;2.60;;;;;;;3.05;71.96;100081.96;1731303;82;25387;-41
2023/02/03 10:44:04;;;;;;;4.28;2.10;;;;;;;3.36;68.49;100078.83;1697066;84;26091;-44
2023/02/03 10:46:35;;;;;;;5.85;2.10;;;;;;;3.34;69.01;100080.97;1732165;82;25646;-43
2023/02/03 10:49:05;;;;;;;5.03;2.33;;;;;;;3.33;69.23;100067.31;1696957;84;27357;-47
2023/02/03 10:51:49;;;;;;;3.52;1.92;;;;;;;3.28;68.99;100050.73;1731969;82;25940;-43
2023/02/03 10:54:32;;;;;;;3.10;1.22;;;;;;;3.19;66.42;100061.69;1696993;84;25584;-44
2023/02/03 10:57:07;;;;;;;3.20;1.50;;;;;;;3.09;66.60;100037.08;1732019;82;26179;-44
2023/02/03 10:59:39;;;;;;;2.92;1.40;;;;;;;2.87;66.34;100025.28;1696847;84;25569;-42
2023/02/03 11:02:24;;;;;;;3.60;1.00;;;;;;;2.74;68.26;100015.09;1730973;82;27389;-41
2023/02/03 11:05:23;;;;;;;2.50;1.50;;;;;;;2.65;67.88;100015.35;1686683;85;25716;-40
2023/02/03 11:07:53;;;;;;;4.03;1.30;;;;;;;2.41;66.89;99996.58;1687011;85;25576;-42
2023/02/03 11:10:37;;;;;;;2.85;1.40;;;;;;;2.31;67.50;99986.41;1726524;83;25653;-43
2023/02/03 11:13:22;;;;;;;3.72;1.80;;;;;;;2.21;66.44;99983.97;1686770;85;25596;-42
2023/02/03 11:16:08;;;;;;;5.03;2.27;;;;;;;2.15;67.76;99958.32;1726510;83;27364;-44
2023/02/03 11:19:04;;;;;;;4.80;2.85;;;;;;;2.29;69.07;99945.28;1686391;84;27146;-43
2023/02/03 11:21:49;;;;;;;4.90;2.10;;;;;;;2.63;69.50;99954.73;1726635;83;25575;-42
2023/02/03 11:24:29;;;;;;;5.03;3.12;;;;;;;2.85;69.53;99926.45;1686827;85;25649;-44
2023/02/03 11:27:13;;;;;;;3.85;3.00;;;;;;;2.80;67.22;99922.69;1686618;84;25467;-42
2023/02/03 11:29:48;;;;;;;3.72;3.05;;;;;;;2.69;67.59;99922.95;1687018;84;29566;-42
2023/02/03 11:32:23;;;;;;;4.22;2.17;;;;;;;2.58;68.19;99908.24;1726630;83;25619;-42
2023/02/03 11:35:22;;;;;;;3.35;1.70;;;;;;;2.46;68.21;99901.02;1686953;85;25625;-43
2023/02/03 11:37:53;;;;;;;4.62;2.50;;;;;;;2.31;68.25;99898.32;1726967;83;25634;-43
2023/02/03 11:40:31;;;;;;;7.47;3.25;;;;;;;2.26;69.77;99886.30;1726355;83;25249;-44
2023/02/03 11:43:03;;;;;;;4.05;2.33;;;;;;;2.23;69.88;99878.27;1686942;85;27903;-42
2023/02/03 11:45:38;;;;;;;3.25;2.75;;;;;;;2.13;68.20;99880.41;1726612;83;25482;-42
2023/02/03 11:48:19;;;;;;;7.37;5.90;;;;;;;1.96;65.90;99866.45;1672697;84;25588;-41
2023/02/03 11:51:16;;;;;;;7.62;5.30;;;;;;;1.79;67.51;99858.69;1726643;83;27725;-41